createdAt,value
2023-03-16T00:01:02.532Z,94904.00
2023-03-16T00:05:02.301Z,94906.00
2023-03-16T00:09:02.468Z,94900.00
2023-03-16T00:13:02.648Z,94904.00
2023-03-16T00:17:02.826Z,94902.00
2023-03-16T00:21:03.006Z,94912.00
2023-03-16T00:25:03.162Z,94906.00
2023-03-16T00:29:03.347Z,94908.00
2023-03-16T00:33:03.563Z,94912.00
2023-03-16T00:37:03.679Z,94910.00
2023-03-16T00:41:03.872Z,94908.00
2023-03-16T00:45:04.081Z,94904.00
2023-03-16T00:49:04.287Z,94906.00
2023-03-16T00:53:04.462Z,94908.00
2023-03-16T00:57:04.589Z,94906.00
2023-03-16T01:01:04.842Z,94900.00
2023-03-16T01:05:05.032Z,94898.00
2023-03-16T01:09:05.281Z,94896.00
2023-03-16T01:13:05.455Z,94884.00
2023-03-16T01:17:05.675Z,94884.00
2023-03-16T01:21:06.034Z,94896.00
2023-03-16T01:25:06.135Z,94896.00
2023-03-16T01:29:06.296Z,94886.00
2023-03-16T01:33:06.709Z,94882.00
2023-03-16T01:37:06.829Z,94884.00
2023-03-16T01:41:06.932Z,94898.00
2023-03-16T01:45:07.214Z,94900.00
2023-03-16T01:49:08.524Z,94900.00
2023-03-16T01:53:07.628Z,94898.00
2023-03-16T01:57:07.823Z,94900.00
2023-03-16T02:01:08.100Z,94900.00
2023-03-16T02:05:08.272Z,94898.00
2023-03-16T02:09:08.993Z,94904.00
2023-03-16T02:13:08.738Z,94906.00
2023-03-16T02:17:09.037Z,94908.00
2023-03-16T02:21:09.990Z,94908.00
2023-03-16T02:25:09.083Z,94908.00
2023-03-16T02:29:09.015Z,94906.00
2023-03-16T02:33:08.920Z,94910.00
2023-03-16T02:37:08.982Z,94916.00
2023-03-16T02:41:08.859Z,94916.00
2023-03-16T02:45:08.842Z,94916.00
2023-03-16T02:49:09.019Z,94918.00
2023-03-16T02:53:08.741Z,94914.00
2023-03-16T02:57:08.697Z,94916.00
2023-03-16T03:01:08.750Z,94912.00
2023-03-16T03:05:08.970Z,94912.00
2023-03-16T03:09:09.143Z,94914.00
2023-03-16T03:13:09.364Z,94924.00
2023-03-16T03:17:09.614Z,94925.00
2023-03-16T03:21:09.814Z,94924.00
2023-03-16T03:25:09.754Z,94927.00
2023-03-16T03:29:09.835Z,94929.00
2023-03-16T03:33:09.800Z,94927.00
2023-03-16T03:37:09.676Z,94929.00
2023-03-16T03:41:09.657Z,94931.00
2023-03-16T03:45:09.517Z,94927.00
2023-03-16T03:49:09.523Z,94931.00
2023-03-16T03:53:09.456Z,94933.00
2023-03-16T03:57:09.435Z,94941.00
2023-03-16T04:01:09.558Z,94941.00
2023-03-16T04:05:10.035Z,94937.00
2023-03-16T04:09:09.315Z,94935.00
2023-03-16T04:13:09.421Z,94933.00
2023-03-16T04:17:09.490Z,94929.00
2023-03-16T04:21:09.626Z,94933.00
2023-03-16T04:25:11.420Z,94931.00
2023-03-16T04:29:09.715Z,94931.00
2023-03-16T04:33:09.839Z,94927.00
2023-03-16T04:37:09.886Z,94929.00
2023-03-16T04:41:09.881Z,94925.00
2023-03-16T04:45:09.940Z,94924.00
2023-03-16T04:49:10.009Z,94922.00
2023-03-16T04:53:10.068Z,94918.00
2023-03-16T04:57:10.026Z,94918.00
2023-03-16T05:01:10.037Z,94916.00
2023-03-16T05:05:10.047Z,94916.00
2023-03-16T05:09:10.004Z,94924.00
2023-03-16T05:13:09.959Z,94929.00
2023-03-16T05:17:10.008Z,94929.00
2023-03-16T05:21:09.951Z,94929.00
2023-03-16T05:25:10.087Z,94929.00
2023-03-16T05:29:10.072Z,94931.00
2023-03-16T05:33:10.324Z,94935.00
2023-03-16T05:37:10.163Z,94937.00
2023-03-16T05:41:10.572Z,94931.00
2023-03-16T05:45:10.070Z,94939.00
2023-03-16T05:49:10.094Z,94937.00
2023-03-16T05:53:10.584Z,94937.00
2023-03-16T05:57:10.034Z,94949.00
2023-03-16T06:01:09.954Z,94959.00
2023-03-16T06:05:09.948Z,94955.00
2023-03-16T06:09:09.897Z,94957.00
2023-03-16T06:13:09.973Z,94957.00
2023-03-16T06:17:09.835Z,94957.00
2023-03-16T06:21:09.803Z,94951.00
2023-03-16T06:25:09.944Z,94955.00
2023-03-16T06:29:10.379Z,94955.00
2023-03-16T06:33:10.399Z,94963.00
2023-03-16T06:37:10.392Z,94957.00
2023-03-16T06:41:10.379Z,94949.00
2023-03-16T06:45:10.535Z,94945.00
2023-03-16T06:49:11.636Z,94935.00
2023-03-16T06:53:10.868Z,94931.00
2023-03-16T06:57:10.860Z,94935.00
2023-03-16T07:01:10.985Z,94937.00
2023-03-16T07:05:11.015Z,94941.00
2023-03-16T07:09:11.300Z,94947.00
2023-03-16T07:13:12.277Z,94947.00
2023-03-16T07:17:11.116Z,94943.00
2023-03-16T07:21:11.185Z,94941.00
2023-03-16T07:25:11.111Z,94943.00
2023-03-16T07:29:11.015Z,94945.00
2023-03-16T07:33:10.978Z,94945.00
2023-03-16T07:37:11.131Z,94943.00
2023-03-16T07:41:11.425Z,94949.00
2023-03-16T07:45:11.439Z,94945.00
2023-03-16T07:49:11.400Z,94943.00
2023-03-16T07:53:11.556Z,94941.00
2023-03-16T07:57:11.512Z,94943.00
2023-03-16T08:01:11.651Z,94943.00
2023-03-16T08:05:11.716Z,94939.00
2023-03-16T08:09:11.681Z,94935.00
2023-03-16T08:13:15.277Z,94929.00
2023-03-16T08:17:11.687Z,94933.00
2023-03-16T08:21:12.222Z,94925.00
2023-03-16T08:25:11.406Z,94925.00
2023-03-16T08:29:11.547Z,94920.00
2023-03-16T08:33:11.516Z,94916.00
2023-03-16T08:37:11.501Z,94916.00
2023-03-16T08:41:16.251Z,94912.00
2023-03-16T08:45:13.995Z,94916.00
2023-03-16T08:49:11.241Z,94910.00
2023-03-16T08:53:11.241Z,94910.00
2023-03-16T08:57:12.174Z,94898.00
2023-03-16T09:01:11.341Z,94898.00
2023-03-16T09:05:11.192Z,94898.00
2023-03-16T09:09:11.221Z,94894.00
2023-03-16T09:13:11.050Z,94884.00
2023-03-16T09:17:11.001Z,94882.00
2023-03-16T09:21:10.928Z,94874.00
2023-03-16T09:25:10.894Z,94872.00
2023-03-16T09:29:10.972Z,94859.00
2023-03-16T09:33:10.978Z,94857.00
2023-03-16T09:37:10.880Z,94857.00
2023-03-16T09:41:10.994Z,94851.00
2023-03-16T09:45:11.117Z,94847.00
2023-03-16T09:49:13.764Z,94849.00
2023-03-16T09:53:10.908Z,94843.00
2023-03-16T09:57:11.743Z,94841.00
2023-03-16T10:01:10.927Z,94835.00
2023-03-16T10:05:10.909Z,94824.00
2023-03-16T10:09:10.769Z,94818.00
2023-03-16T10:13:10.797Z,94810.00
2023-03-16T10:17:10.707Z,94806.00
2023-03-16T10:21:10.785Z,94800.00
2023-03-16T10:25:10.579Z,94798.00
2023-03-16T10:29:10.728Z,94798.00
2023-03-16T10:33:10.645Z,94794.00
2023-03-16T10:37:10.645Z,94788.00
2023-03-16T10:41:10.721Z,94782.00
2023-03-16T10:45:11.264Z,94780.00
2023-03-16T10:49:10.913Z,94771.00
2023-03-16T10:53:11.097Z,94765.00
2023-03-16T10:57:11.478Z,94769.00
2023-03-16T11:01:11.323Z,94757.00
2023-03-16T11:05:12.573Z,94761.00
2023-03-16T11:09:11.461Z,94755.00
2023-03-16T11:13:12.274Z,94753.00
2023-03-16T11:17:11.305Z,94747.00
2023-03-16T11:21:11.305Z,94743.00
2023-03-16T11:25:11.266Z,94733.00
2023-03-16T11:29:11.750Z,94725.00
2023-03-16T11:33:12.693Z,94714.00
2023-03-16T11:37:11.177Z,94704.00
2023-03-16T11:41:11.193Z,94696.00
2023-03-16T11:45:11.453Z,94684.00
2023-03-16T11:49:11.539Z,94676.00
2023-03-16T11:53:11.518Z,94676.00
2023-03-16T11:57:11.650Z,94671.00
2023-03-16T12:01:11.737Z,94661.00
2023-03-16T12:05:11.712Z,94653.00
2023-03-16T12:09:11.806Z,94647.00
2023-03-16T12:13:11.870Z,94641.00
2023-03-16T12:17:12.236Z,94624.00
2023-03-16T12:21:16.315Z,94618.00
2023-03-16T12:25:11.961Z,94610.00
2023-03-16T12:29:11.933Z,94608.00
2023-03-16T12:33:11.906Z,94606.00
2023-03-16T12:37:11.825Z,94596.00
2023-03-16T12:41:11.813Z,94590.00
2023-03-16T12:45:11.749Z,94578.00
2023-03-16T12:49:11.879Z,94571.00
2023-03-16T12:53:11.984Z,94569.00
2023-03-16T12:57:12.258Z,94567.00
2023-03-16T13:01:12.366Z,94563.00
2023-03-16T13:05:12.435Z,94563.00
2023-03-16T13:09:12.780Z,94561.00
2023-03-16T13:13:12.760Z,94557.00
2023-03-16T13:17:13.033Z,94555.00
2023-03-16T13:21:13.251Z,94547.00
2023-03-16T13:25:13.386Z,94537.00
2023-03-16T13:29:13.565Z,94533.00
2023-03-16T13:33:13.758Z,94526.00
2023-03-16T13:37:13.976Z,94524.00
2023-03-16T13:41:14.196Z,94522.00
2023-03-16T13:45:14.189Z,94520.00
2023-03-16T13:49:14.249Z,94518.00
2023-03-16T13:53:14.108Z,94514.00
2023-03-16T13:57:14.022Z,94518.00
2023-03-16T14:01:14.127Z,94516.00
2023-03-16T14:05:13.971Z,94516.00
2023-03-16T14:09:13.961Z,94514.00
2023-03-16T14:13:13.889Z,94512.00
2023-03-16T14:17:13.851Z,94514.00
2023-03-16T14:21:13.875Z,94508.00
2023-03-16T14:25:13.851Z,94506.00
2023-03-16T14:29:13.799Z,94506.00
2023-03-16T14:33:13.777Z,94502.00
2023-03-16T14:37:13.740Z,94500.00
2023-03-16T14:41:13.739Z,94494.00
2023-03-16T14:45:13.659Z,94496.00
2023-03-16T14:49:13.622Z,94494.00
2023-03-16T14:53:13.597Z,94494.00
2023-03-16T14:57:13.569Z,94488.00
2023-03-16T15:01:13.599Z,94484.00
2023-03-16T15:05:13.547Z,94484.00
2023-03-16T15:09:13.505Z,94486.00
2023-03-16T15:13:13.806Z,94484.00
2023-03-16T15:17:13.537Z,94484.00
2023-03-16T15:21:13.527Z,94486.00
2023-03-16T15:25:13.494Z,94488.00
2023-03-16T15:29:13.504Z,94492.00
2023-03-16T15:33:13.480Z,94492.00
2023-03-16T15:37:14.320Z,94490.00
2023-03-16T15:41:13.472Z,94496.00
2023-03-16T15:45:13.481Z,94490.00
2023-03-16T15:49:13.421Z,94484.00
2023-03-16T15:53:29.209Z,94484.00
2023-03-16T15:57:14.697Z,94481.00
2023-03-16T16:01:13.691Z,94486.00
2023-03-16T16:05:14.463Z,94486.00
2023-03-16T16:09:13.639Z,94488.00
2023-03-16T16:13:13.556Z,94492.00
2023-03-16T16:17:13.541Z,94494.00
2023-03-16T16:21:13.534Z,94494.00
2023-03-16T16:25:13.506Z,94492.00
2023-03-16T16:29:14.357Z,94490.00
2023-03-16T16:33:13.535Z,94500.00
2023-03-16T16:37:13.486Z,94496.00
2023-03-16T16:41:13.564Z,94500.00
2023-03-16T16:45:13.574Z,94502.00
2023-03-16T16:49:13.486Z,94506.00
2023-03-16T16:53:13.481Z,94508.00
2023-03-16T16:57:13.563Z,94524.00
2023-03-16T17:01:13.538Z,94530.00
2023-03-16T17:05:13.524Z,94532.00
2023-03-16T17:09:13.594Z,94533.00
2023-03-16T17:13:13.607Z,94539.00
2023-03-16T17:17:13.755Z,94551.00
2023-03-16T17:21:13.714Z,94553.00
2023-03-16T17:25:13.692Z,94559.00
2023-03-16T17:29:13.762Z,94569.00
2023-03-16T17:33:13.836Z,94576.00
2023-03-16T17:37:13.895Z,94584.00
2023-03-16T17:41:13.979Z,94586.00
2023-03-16T17:45:14.054Z,94588.00
2023-03-16T17:49:14.190Z,94594.00
2023-03-16T17:53:14.216Z,94602.00
2023-03-16T17:57:14.343Z,94606.00
2023-03-16T18:01:14.454Z,94606.00
2023-03-16T18:05:14.531Z,94610.00
2023-03-16T18:09:14.624Z,94618.00
2023-03-16T18:13:14.739Z,94624.00
2023-03-16T18:17:14.867Z,94626.00
2023-03-16T18:21:14.992Z,94624.00
2023-03-16T18:25:15.103Z,94637.00
2023-03-16T18:29:15.238Z,94641.00
2023-03-16T18:33:15.366Z,94643.00
2023-03-16T18:37:15.497Z,94649.00
2023-03-16T18:41:15.675Z,94651.00
2023-03-16T18:45:15.796Z,94655.00
2023-03-16T18:49:15.919Z,94655.00
2023-03-16T18:53:16.085Z,94657.00
2023-03-16T18:57:16.186Z,94663.00
2023-03-16T19:01:16.350Z,94663.00
2023-03-16T19:05:16.481Z,94671.00
2023-03-16T19:09:16.602Z,94673.00
2023-03-16T19:13:16.730Z,94669.00
2023-03-16T19:17:16.891Z,94673.00
2023-03-16T19:21:17.080Z,94676.00
2023-03-16T19:25:17.305Z,94684.00
2023-03-16T19:29:17.477Z,94686.00
2023-03-16T19:33:17.555Z,94692.00
2023-03-16T19:37:17.740Z,94692.00
2023-03-16T19:41:17.914Z,94692.00
2023-03-16T19:45:18.099Z,94698.00
2023-03-16T19:49:18.262Z,94696.00
2023-03-16T19:53:18.459Z,94704.00
2023-03-16T19:57:18.678Z,94706.00
2023-03-16T20:01:18.889Z,94704.00
2023-03-16T20:05:19.036Z,94708.00
2023-03-16T20:09:19.268Z,94710.00
2023-03-16T20:13:19.437Z,94718.00
2023-03-16T20:17:19.639Z,94716.00
2023-03-16T20:21:19.835Z,94714.00
2023-03-16T20:25:20.050Z,94722.00
2023-03-16T20:29:20.293Z,94725.00
2023-03-16T20:33:20.512Z,94729.00
2023-03-16T20:37:20.686Z,94733.00
2023-03-16T20:41:20.977Z,94737.00
2023-03-16T20:45:21.160Z,94739.00
2023-03-16T20:49:21.380Z,94737.00
2023-03-16T20:53:21.597Z,94739.00
2023-03-16T20:57:21.771Z,94745.00
2023-03-16T21:01:21.814Z,94747.00
2023-03-16T21:05:21.718Z,94749.00
2023-03-16T21:09:21.688Z,94751.00
2023-03-16T21:13:21.662Z,94757.00
2023-03-16T21:17:22.606Z,94755.00
2023-03-16T21:21:21.612Z,94761.00
2023-03-16T21:25:21.587Z,94759.00
2023-03-16T21:29:21.561Z,94759.00
2023-03-16T21:33:21.522Z,94761.00
2023-03-16T21:37:21.388Z,94767.00
2023-03-16T21:41:21.360Z,94765.00
2023-03-16T21:45:21.353Z,94761.00
2023-03-16T21:49:21.306Z,94765.00
2023-03-16T21:53:21.279Z,94763.00
2023-03-16T21:57:21.254Z,94765.00
2023-03-16T22:01:21.219Z,94759.00
2023-03-16T22:05:21.218Z,94757.00
2023-03-16T22:09:21.145Z,94761.00
2023-03-16T22:13:21.120Z,94761.00
2023-03-16T22:17:21.090Z,94761.00
2023-03-16T22:21:21.038Z,94761.00
2023-03-16T22:25:20.971Z,94763.00
2023-03-16T22:29:20.970Z,94761.00
2023-03-16T22:33:21.079Z,94757.00
2023-03-16T22:37:20.995Z,94757.00
2023-03-16T22:41:21.029Z,94755.00
2023-03-16T22:45:20.898Z,94755.00
2023-03-16T22:49:20.994Z,94745.00
2023-03-16T22:53:20.844Z,94747.00
2023-03-16T22:57:20.781Z,94747.00
2023-03-16T23:01:20.881Z,94751.00
2023-03-16T23:05:20.739Z,94751.00
2023-03-16T23:09:21.049Z,94749.00
2023-03-16T23:13:20.674Z,94749.00
2023-03-16T23:17:20.796Z,94745.00
2023-03-16T23:21:20.949Z,94747.00
2023-03-16T23:25:21.037Z,94749.00
2023-03-16T23:29:21.218Z,94749.00
2023-03-16T23:33:21.384Z,94745.00
2023-03-16T23:37:21.597Z,94743.00
2023-03-16T23:41:21.774Z,94747.00
2023-03-16T23:45:21.919Z,94745.00
2023-03-16T23:49:23.125Z,94749.00
2023-03-16T23:53:22.095Z,94749.00
2023-03-16T23:57:22.133Z,94741.00
